Time;durP1;ratioP1;P1;durP2;ratioP2;P2;SDS_P1;SDS_P2;PMS_P1;PMS_P2;Temp;Humidity;BMP_temperature;BMP_pressure;BME280_temperature;BME280_humidity;BME280_pressure;Samples;Min_cycle;Max_cycle;Signal;HPM_P1;HPM_P2
2022/11/15 00:01:16;;;;;;;8.40;6.30;;;;;;;2.48;100.00;101773.38;5010937;28;20030;-72
2022/11/15 00:03:45;;;;;;;7.70;6.47;;;;;;;2.33;100.00;101761.09;5011398;28;20037;-78
2022/11/15 00:06:11;;;;;;;6.80;6.10;;;;;;;2.35;100.00;101764.47;5001086;28;20356;-77
2022/11/15 00:08:37;;;;;;;8.40;6.60;;;;;;;2.40;100.00;101754.53;4982478;28;20293;-77
2022/11/15 00:11:03;;;;;;;9.53;6.37;;;;;;;2.42;100.00;101756.16;4979648;28;20477;-76
2022/11/15 00:13:30;;;;;;;12.53;7.07;;;;;;;2.43;100.00;101757.00;4995935;28;20029;-76
2022/11/15 00:16:01;;;;;;;8.10;7.13;;;;;;;2.48;100.00;101744.44;5010054;28;20270;-76
2022/11/15 00:18:27;;;;;;;7.40;6.47;;;;;;;2.58;100.00;101750.88;5015646;28;20287;-75
2022/11/15 00:20:52;;;;;;;8.13;6.77;;;;;;;2.61;100.00;101744.59;5017632;28;20278;-74
2022/11/15 00:26:36;;;;;;;8.50;7.03;;;;;;;2.49;100.00;101725.09;5035583;28;20049;-75
2022/11/15 00:29:05;;;;;;;6.70;5.88;;;;;;;2.40;100.00;101708.06;5015686;28;20117;-75
2022/11/15 00:31:30;;;;;;;8.37;6.93;;;;;;;2.40;100.00;101704.59;5015125;28;20030;-75
2022/11/15 00:33:56;;;;;;;10.93;7.00;;;;;;;2.30;100.00;101693.72;5013913;28;20824;-76
2022/11/15 00:36:21;;;;;;;9.13;6.97;;;;;;;2.34;100.00;101687.41;5013803;28;20034;-76
2022/11/15 00:38:47;;;;;;;8.37;6.87;;;;;;;2.36;100.00;101689.94;5014012;28;20098;-76
2022/11/15 00:41:12;;;;;;;12.67;7.23;;;;;;;2.37;100.00;101678.47;4995977;28;20052;-75
2022/11/15 00:43:39;;;;;;;8.57;7.40;;;;;;;2.41;100.00;101690.50;5013308;28;20030;-73
2022/11/15 00:46:05;;;;;;;8.57;7.50;;;;;;;2.35;100.00;101681.19;5013223;28;20117;-75
2022/11/15 00:48:32;;;;;;;9.07;6.70;;;;;;;2.40;100.00;101670.41;4996146;28;20269;-75
2022/11/15 00:50:58;;;;;;;10.77;7.97;;;;;;;2.37;100.00;101652.19;5014770;28;20256;-77
2022/11/15 00:53:23;;;;;;;10.60;7.20;;;;;;;2.34;100.00;101647.97;5013109;28;20033;-75
2022/11/15 00:55:49;;;;;;;13.27;8.50;;;;;;;2.16;100.00;101626.19;5013471;28;20034;-76
2022/11/15 00:58:14;;;;;;;12.90;7.13;;;;;;;2.31;100.00;101644.63;5013287;28;20037;-76
2022/11/15 01:00:40;;;;;;;14.90;8.13;;;;;;;2.12;100.00;101622.06;5013207;28;20125;-75
2022/11/15 01:03:05;;;;;;;11.07;7.67;;;;;;;2.17;100.00;101641.03;5013166;28;20417;-75
2022/11/15 01:05:31;;;;;;;9.27;6.43;;;;;;;2.14;100.00;101622.81;5013604;28;20373;-76
2022/11/15 01:07:57;;;;;;;10.53;6.80;;;;;;;2.07;100.00;101603.09;5013419;28;20036;-75
2022/11/15 01:10:23;;;;;;;7.80;6.30;;;;;;;2.17;100.00;101625.25;5011770;28;20080;-75
2022/11/15 01:12:49;;;;;;;7.97;6.43;;;;;;;2.14;100.00;101614.09;5028385;28;20504;-75
2022/11/15 01:15:15;;;;;;;6.87;6.17;;;;;;;2.15;100.00;101613.16;5013645;28;20264;-76
2022/11/15 01:17:41;;;;;;;7.57;6.17;;;;;;;2.13;100.00;101618.50;5013579;28;20313;-75
2022/11/15 01:20:08;;;;;;;8.97;6.73;;;;;;;2.12;100.00;101616.81;4995766;28;20034;-76
2022/11/15 01:22:37;;;;;;;7.03;6.03;;;;;;;2.11;100.00;101609.84;5005738;28;20046;-75
2022/11/15 01:25:04;;;;;;;6.67;5.37;;;;;;;2.13;100.00;101597.47;4993703;28;20280;-75
2022/11/15 01:27:29;;;;;;;8.23;6.13;;;;;;;2.22;100.00;101585.56;4992762;28;20606;-75
2022/11/15 01:29:55;;;;;;;8.73;6.80;;;;;;;2.06;100.00;101575.13;4994069;28;20357;-76
2022/11/15 01:32:20;;;;;;;7.57;5.83;;;;;;;2.08;100.00;101596.03;4994271;28;20026;-76
2022/11/15 01:34:49;;;;;;;9.27;7.30;;;;;;;2.04;100.00;101591.91;4976688;28;20363;-75
2022/11/15 01:37:22;;;;;;;10.73;6.83;;;;;;;1.80;100.00;101544.22;4993744;28;20096;-76
2022/11/15 01:39:48;;;;;;;8.17;6.17;;;;;;;1.93;100.00;101563.59;4994049;28;20371;-75
2022/11/15 01:42:14;;;;;;;7.90;5.80;;;;;;;2.01;100.00;101581.53;4976212;28;20809;-75
2022/11/15 01:44:42;;;;;;;6.63;5.50;;;;;;;1.97;100.00;101578.25;4975747;28;20034;-75
2022/11/15 01:47:20;;;;;;;7.43;5.90;;;;;;;1.94;100.00;101560.03;4991741;28;20268;-75
2022/11/15 01:49:56;;;;;;;8.98;5.20;;;;;;;2.12;100.00;101573.91;4975548;28;20705;-75
2022/11/15 01:52:25;;;;;;;7.53;5.90;;;;;;;2.09;100.00;101555.69;4975841;28;20026;-75
2022/11/15 01:55:04;;;;;;;;;;;;;;;2.25;100.00;101563.53;4993538;28;20297;-74
2022/11/15 01:57:30;;;;;;;7.67;4.90;;;;;;;2.13;100.00;101557.22;4994078;28;19944;-75
2022/11/15 01:59:59;;;;;;;9.17;6.50;;;;;;;2.20;100.00;101550.66;4959532;28;20293;-76
2022/11/15 02:02:24;;;;;;;7.68;5.28;;;;;;;2.20;100.00;101536.66;4976048;28;20109;-77
2022/11/15 02:04:50;;;;;;;7.73;5.90;;;;;;;2.15;100.00;101531.69;4976471;28;20530;-76
2022/11/15 02:07:18;;;;;;;7.77;5.70;;;;;;;1.88;100.00;101502.59;4993371;28;20023;-75
2022/11/15 02:09:44;;;;;;;7.65;6.40;;;;;;;1.89;100.00;101511.34;4993630;28;20401;-74
2022/11/15 02:12:16;;;;;;;7.27;5.90;;;;;;;1.64;100.00;101489.09;4993458;28;20493;-75
2022/11/15 02:14:46;;;;;;;9.53;5.93;;;;;;;1.73;100.00;101508.72;4992672;28;20309;-75
2022/11/15 02:17:48;;;;;;;8.53;6.40;;;;;;;1.70;100.00;101503.66;4994176;28;20268;-75
2022/11/15 02:20:34;;;;;;;10.40;6.70;;;;;;;1.30;100.00;101436.84;4993460;28;20273;-75
2022/11/15 02:23:06;;;;;;;9.70;7.37;;;;;;;1.64;100.00;101491.72;4993433;28;20857;-76
2022/11/15 02:25:46;;;;;;;7.80;6.53;;;;;;;1.53;100.00;101479.22;4975771;28;20768;-75
2022/11/15 02:28:39;;;;;;;7.83;6.23;;;;;;;1.61;100.00;101485.81;4975663;28;20261;-75
2022/11/15 02:31:11;;;;;;;8.43;6.20;;;;;;;1.61;100.00;101484.03;4960006;28;20269;-76
2022/11/15 02:34:08;;;;;;;8.00;6.07;;;;;;;1.74;100.00;101484.19;4977130;28;20266;-75
2022/11/15 02:37:11;;;;;;;8.13;5.97;;;;;;;1.92;100.00;101488.34;4979458;28;20329;-74
2022/11/15 02:40:29;;;;;;;8.10;5.93;;;;;;;2.04;100.00;101477.16;5014363;28;20368;-74
2022/11/15 02:46:14;;;;;;;9.90;6.20;;;;;;;2.06;100.00;101463.91;4998351;28;20269;-75
2022/11/15 02:48:42;;;;;;;9.53;6.43;;;;;;;2.11;100.00;101461.84;4977346;28;20634;-75
2022/11/15 02:51:09;;;;;;;8.68;5.85;;;;;;;2.11;100.00;101457.44;4994512;28;20771;-75
2022/11/15 02:53:34;;;;;;;10.27;6.10;;;;;;;2.02;100.00;101450.09;4992318;28;20490;-76
2022/11/15 02:56:03;;;;;;;8.40;6.60;;;;;;;1.92;100.00;101443.69;4992844;28;20270;-74
2022/11/15 02:58:47;;;;;;;7.22;5.90;;;;;;;1.87;100.00;101443.13;4976708;28;20035;-75
2022/11/15 03:01:24;;;;;;;10.03;6.13;;;;;;;1.82;100.00;101437.31;4996733;28;20582;-74
2022/11/15 03:04:04;;;;;;;7.23;6.27;;;;;;;1.82;100.00;101425.03;4996823;28;20714;-75
2022/11/15 03:06:41;;;;;;;10.70;6.63;;;;;;;1.85;100.00;101426.63;4995597;28;20265;-75
2022/11/15 03:09:17;;;;;;;11.07;7.00;;;;;;;1.90;100.00;101418.47;4996863;28;20349;-74
2022/11/15 03:11:56;;;;;;;7.97;5.93;;;;;;;1.95;100.00;101406.75;4979462;28;20298;-74
2022/11/15 03:14:34;;;;;;;9.13;6.40;;;;;;;2.09;100.00;101419.91;4996509;28;20587;-76
2022/11/15 03:17:11;;;;;;;6.80;5.83;;;;;;;2.07;100.00;101413.91;4996590;28;20045;-75
2022/11/15 03:19:39;;;;;;;7.77;6.37;;;;;;;2.04;100.00;101406.22;4996002;28;20827;-76
2022/11/15 03:22:21;;;;;;;7.22;5.78;;;;;;;1.97;100.00;101396.97;4996123;28;20284;-76
2022/11/15 03:24:55;;;;;;;7.10;5.53;;;;;;;1.79;100.00;101387.59;4995793;28;20050;-76
2022/11/15 03:35:44;;;;;;;6.97;5.60;;;;;;;1.54;100.00;101357.53;4915687;29;20311;-77
2022/11/15 03:38:26;;;;;;;9.20;6.67;;;;;;;1.62;100.00;101369.34;4905653;29;20044;-76
2022/11/15 03:41:05;;;;;;;7.63;6.13;;;;;;;1.65;100.00;101370.00;4938749;28;20328;-75
2022/11/15 03:43:50;;;;;;;10.02;6.05;;;;;;;1.45;100.00;101352.81;4997378;28;20280;-75
2022/11/15 03:46:33;;;;;;;9.83;7.20;;;;;;;1.64;100.00;101363.06;4996138;28;20061;-76
2022/11/15 03:49:11;;;;;;;10.00;6.20;;;;;;;1.70;100.00;101367.94;4996035;28;20316;-76
2022/11/15 03:51:37;;;;;;;10.20;5.83;;;;;;;1.62;100.00;101374.59;4995682;28;20273;-77
2022/11/15 03:54:04;;;;;;;8.70;7.30;;;;;;;1.57;100.00;101372.25;4995875;28;20269;-77
2022/11/15 03:56:29;;;;;;;7.70;5.73;;;;;;;1.55;100.00;101361.84;4978540;28;20038;-76
2022/11/15 03:58:55;;;;;;;7.87;5.40;;;;;;;1.59;100.00;101367.75;4995725;28;20328;-76
2022/11/15 04:01:20;;;;;;;8.97;6.40;;;;;;;1.60;100.00;101369.44;4995461;28;20034;-77
2022/11/15 04:03:46;;;;;;;10.80;7.83;;;;;;;1.53;100.00;101350.59;4994878;28;20057;-76
2022/11/15 04:06:12;;;;;;;11.83;7.60;;;;;;;1.57;100.00;101359.13;4996904;28;20030;-76
2022/11/15 04:08:58;;;;;;;10.47;7.30;;;;;;;1.43;100.00;101338.91;4995761;28;20470;-77
2022/11/15 04:11:43;;;;;;;10.67;6.97;;;;;;;1.53;100.00;101350.59;4995722;28;20158;-76
2022/11/15 04:16:52;;;;;;;8.93;6.50;;;;;;;1.45;100.00;101344.94;5016686;28;20288;-74
2022/11/15 04:24:47;;;;;;;8.37;6.63;;;;;;;1.23;100.00;101299.91;5003654;28;20308;-75
2022/11/15 04:27:15;;;;;;;8.97;7.13;;;;;;;1.47;100.00;101344.88;5007365;28;20273;-76
2022/11/15 04:29:41;;;;;;;8.82;6.97;;;;;;;1.35;100.00;101320.16;4979313;28;20030;-75
2022/11/15 04:32:07;;;;;;;6.90;5.57;;;;;;;1.48;100.00;101344.78;4994207;28;20041;-77
2022/11/15 04:34:33;;;;;;;8.37;6.13;;;;;;;1.43;100.00;101328.41;4995155;28;20034;-75
2022/11/15 04:37:14;;;;;;;6.93;5.90;;;;;;;1.45;100.00;101325.75;4994986;28;20026;-77
2022/11/15 04:39:41;;;;;;;9.37;7.17;;;;;;;1.49;100.00;101338.59;4995229;28;20061;-77
2022/11/15 04:42:07;;;;;;;10.73;7.40;;;;;;;1.49;100.00;101330.72;4995479;28;20353;-75
2022/11/15 04:44:32;;;;;;;10.33;8.03;;;;;;;1.53;100.00;101328.75;4994531;28;20308;-77
2022/11/15 04:46:58;;;;;;;11.50;8.33;;;;;;;1.52;100.00;101338.41;4978767;28;20653;-79
2022/11/15 04:49:23;;;;;;;9.70;6.80;;;;;;;1.52;100.00;101327.91;5014947;28;20061;-76
2022/11/15 04:51:49;;;;;;;11.93;6.97;;;;;;;1.49;100.00;101322.84;5017882;28;20041;-76
2022/11/15 04:54:21;;;;;;;13.87;7.80;;;;;;;1.39;100.00;101311.16;5017552;28;20050;-76
2022/11/15 04:56:46;;;;;;;12.07;8.50;;;;;;;1.47;100.00;101319.47;5017258;28;20022;-75
2022/11/15 04:59:12;;;;;;;9.97;7.00;;;;;;;1.46;100.00;101314.31;5001444;28;20291;-76
2022/11/15 05:01:37;;;;;;;9.77;6.73;;;;;;;1.40;100.00;101306.75;4996839;28;20027;-77
2022/11/15 05:04:21;;;;;;;11.70;6.60;;;;;;;1.47;100.00;101303.72;4995868;28;20022;-77
2022/11/15 05:06:48;;;;;;;11.17;6.87;;;;;;;1.69;100.00;101308.50;4994553;28;20026;-75
2022/11/15 05:09:14;;;;;;;8.90;6.17;;;;;;;1.77;100.00;101316.78;4994548;28;20262;-78
2022/11/15 05:11:40;;;;;;;8.30;5.70;;;;;;;1.66;100.00;101302.59;4994297;28;20268;-73
2022/11/15 05:14:06;;;;;;;8.63;6.70;;;;;;;1.53;100.00;101300.72;4993925;28;20045;-76
2022/11/15 05:16:31;;;;;;;14.37;8.20;;;;;;;1.48;100.00;101307.19;5013373;28;20022;-73
2022/11/15 05:18:57;;;;;;;7.27;5.70;;;;;;;1.46;100.00;101306.44;4994404;28;20101;-73
2022/11/15 05:21:23;;;;;;;9.33;6.13;;;;;;;1.42;100.00;101312.75;5014278;28;20069;-75
2022/11/15 05:23:50;;;;;;;7.93;5.50;;;;;;;1.39;100.00;101305.91;5006679;28;20109;-77
2022/11/15 05:26:18;;;;;;;9.73;6.10;;;;;;;1.36;100.00;101302.63;4995303;28;20478;-77
2022/11/15 05:28:44;;;;;;;10.97;7.63;;;;;;;1.27;100.00;101306.66;4994330;28;20266;-75
2022/11/15 05:31:14;;;;;;;13.77;8.23;;;;;;;1.26;100.00;101304.97;4994233;28;20257;-79
2022/11/15 05:33:41;;;;;;;13.43;9.10;;;;;;;1.22;100.00;101292.97;4992849;28;20129;-78
2022/11/15 05:36:45;;;;;;;;;;;;;;;;;;;;;
2022/11/15 05:39:41;;;;;;;13.40;10.30;;;;;;;1.21;100.00;101291.28;4978499;28;20293;-79
2022/11/15 05:42:13;;;;;;;13.93;10.60;;;;;;;1.20;100.00;101287.81;4994731;28;20253;-80
2022/11/15 05:44:44;;;;;;;15.33;10.30;;;;;;;1.18;100.00;101292.31;4994718;28;20261;-80
2022/11/15 05:47:16;;;;;;;15.13;11.10;;;;;;;1.13;100.00;101277.75;4995377;28;20676;-78
2022/11/15 05:49:47;;;;;;;17.20;11.43;;;;;;;1.23;100.00;101298.13;4994426;28;20266;-77
2022/11/15 05:52:16;;;;;;;19.93;14.17;;;;;;;1.27;100.00;101303.19;4993705;28;20792;-79
2022/11/15 05:55:13;;;;;;;13.77;9.30;;;;;;;1.24;100.00;101302.44;4976491;28;20264;-78
2022/11/15 06:01:20;;;;;;;13.60;8.73;;;;;;;1.26;100.00;101307.59;4993557;28;20665;-78
2022/11/15 06:03:46;;;;;;;10.43;8.10;;;;;;;1.22;100.00;101295.59;4994146;28;20258;-77
2022/11/15 06:06:20;;;;;;;13.87;7.10;;;;;;;1.21;100.00;101302.63;4993872;28;20655;-76
2022/11/15 06:08:47;;;;;;;9.60;6.20;;;;;;;1.23;100.00;101310.41;4992730;28;20030;-79
2022/11/15 06:11:17;;;;;;;10.27;7.43;;;;;;;1.23;100.00;101310.41;4999200;28;20296;-79
2022/11/15 06:13:42;;;;;;;11.40;6.30;;;;;;;1.28;100.00;101308.34;4994568;28;20277;-78
2022/11/15 06:16:08;;;;;;;8.77;6.40;;;;;;;1.21;100.00;101296.53;4992389;28;20258;-78
2022/11/15 06:18:34;;;;;;;9.50;6.47;;;;;;;1.27;100.00;101305.81;4992084;28;20534;-79
2022/11/15 06:21:01;;;;;;;8.13;6.43;;;;;;;1.17;100.00;101285.38;4991395;28;20117;-79
2022/11/15 06:23:30;;;;;;;12.27;6.80;;;;;;;1.33;100.00;101308.91;5003426;28;20809;-77
2022/11/15 06:26:01;;;;;;;7.47;6.07;;;;;;;1.36;100.00;101302.63;4993858;28;20744;-78
2022/11/15 06:28:30;;;;;;;8.33;6.60;;;;;;;1.40;100.00;101307.59;5011798;28;20284;-79
2022/11/15 06:31:01;;;;;;;9.27;6.77;;;;;;;1.41;100.00;101303.19;5011752;28;20891;-81
2022/11/15 06:33:27;;;;;;;7.60;6.57;;;;;;;1.37;100.00;101296.44;5013684;28;20618;-80
2022/11/15 06:35:52;;;;;;;10.43;6.40;;;;;;;1.42;100.00;101308.34;5016131;28;20257;-77
2022/11/15 06:38:18;;;;;;;8.87;6.20;;;;;;;1.19;100.00;101272.16;5016326;28;20057;-78
2022/11/15 06:40:43;;;;;;;10.97;6.67;;;;;;;1.43;100.00;101307.44;5016359;28;20030;-79
2022/11/15 06:43:09;;;;;;;8.40;6.03;;;;;;;1.44;100.00;101311.75;5015295;28;20026;-78
2022/11/15 06:45:34;;;;;;;6.37;5.77;;;;;;;1.38;100.00;101308.63;5016566;28;20041;-77
2022/11/15 06:48:03;;;;;;;7.70;5.87;;;;;;;1.28;100.00;101305.72;5017959;28;20060;-79
2022/11/15 06:50:29;;;;;;;8.30;5.55;;;;;;;1.30;100.00;101311.72;5001338;28;20042;-77
2022/11/15 06:53:00;;;;;;;8.80;5.63;;;;;;;1.33;100.00;101308.91;5016424;28;20095;-78
2022/11/15 06:55:26;;;;;;;7.00;4.90;;;;;;;1.36;100.00;101302.63;4998717;28;20343;-76
2022/11/15 06:57:52;;;;;;;6.20;5.17;;;;;;;1.45;100.00;101315.25;5017747;28;20352;-79
2022/11/15 07:00:20;;;;;;;7.90;6.00;;;;;;;1.16;100.00;101272.34;4982786;28;20034;-75
2022/11/15 07:02:46;;;;;;;8.07;5.67;;;;;;;1.37;100.00;101304.31;5016531;28;20267;-78
2022/11/15 07:05:12;;;;;;;8.50;5.43;;;;;;;1.42;100.00;101310.97;5016788;28;20740;-82
2022/11/15 07:07:38;;;;;;;10.20;6.00;;;;;;;1.40;100.00;101317.25;5016354;28;20250;-75
2022/11/15 07:10:07;;;;;;;7.50;6.07;;;;;;;1.36;100.00;101303.47;5017575;28;20257;-78
2022/11/15 07:12:33;;;;;;;9.47;6.23;;;;;;;1.43;100.00;101310.06;5015700;28;20083;-78
2022/11/15 07:14:58;;;;;;;10.53;6.97;;;;;;;1.38;100.00;101298.13;5016361;28;20356;-76
2022/11/15 07:17:24;;;;;;;9.13;7.80;;;;;;;1.32;100.00;101307.22;5016894;28;20040;-76
2022/11/15 07:19:49;;;;;;;8.03;6.90;;;;;;;1.39;100.00;101316.41;5016008;28;20036;-78
2022/11/15 07:22:16;;;;;;;8.43;6.33;;;;;;;1.43;100.00;101312.69;5012971;28;20060;-76
2022/11/15 07:24:41;;;;;;;12.13;7.33;;;;;;;1.39;100.00;101316.41;4995802;28;20057;-78
2022/11/15 07:27:07;;;;;;;9.83;7.03;;;;;;;1.36;100.00;101310.50;4997333;28;20721;-78
2022/11/15 07:29:32;;;;;;;6.80;6.03;;;;;;;1.34;100.00;101300.09;4994915;28;20168;-77
2022/11/15 07:31:58;;;;;;;7.17;5.77;;;;;;;1.42;100.00;101310.13;4996350;28;20030;-77
2022/11/15 07:34:24;;;;;;;8.17;6.27;;;;;;;1.47;100.00;101313.38;4994676;28;20026;-75
2022/11/15 07:36:50;;;;;;;10.87;8.20;;;;;;;1.43;100.00;101315.31;4995073;28;20271;-76
2022/11/15 07:39:15;;;;;;;9.00;6.40;;;;;;;1.44;100.00;101326.63;4996571;28;20593;-79
2022/11/15 07:41:41;;;;;;;6.87;5.50;;;;;;;1.42;100.00;101331.97;4997138;28;20026;-78
2022/11/15 07:44:06;;;;;;;6.23;4.93;;;;;;;1.37;100.00;101328.78;4995822;28;20032;-79
2022/11/15 07:46:32;;;;;;;10.80;5.97;;;;;;;1.33;100.00;101315.94;4995899;28;20041;-78
2022/11/15 07:48:57;;;;;;;8.17;5.30;;;;;;;1.41;100.00;101335.53;4994954;28;20125;-79
2022/11/15 07:51:23;;;;;;;10.03;5.93;;;;;;;1.40;100.00;101325.97;4995431;28;20031;-77
2022/11/15 07:53:49;;;;;;;7.60;5.37;;;;;;;1.42;100.00;101331.13;4995540;28;20069;-79
2022/11/15 07:56:15;;;;;;;7.00;5.73;;;;;;;1.44;100.00;101335.34;4995506;28;20390;-78
2022/11/15 07:58:40;;;;;;;9.27;6.83;;;;;;;1.34;100.00;101310.59;4977529;28;20443;-76
2022/11/15 08:01:08;;;;;;;12.07;6.50;;;;;;;1.54;100.00;101330.44;4994840;28;20052;-79
2022/11/15 08:03:34;;;;;;;10.97;6.23;;;;;;;1.58;100.00;101333.72;4994987;28;20030;-78
2022/11/15 08:06:00;;;;;;;6.93;4.77;;;;;;;1.75;100.00;101333.56;4995041;28;20896;-78
2022/11/15 08:08:26;;;;;;;6.70;5.60;;;;;;;1.82;100.00;101337.50;4995403;28;20333;-77
2022/11/15 08:10:51;;;;;;;8.30;5.77;;;;;;;1.72;100.00;101333.72;4995323;28;20022;-77
2022/11/15 08:13:17;;;;;;;7.43;5.43;;;;;;;1.70;100.00;101325.09;4996756;28;20030;-77
2022/11/15 08:15:43;;;;;;;6.83;4.53;;;;;;;1.78;100.00;101330.75;4998064;28;20081;-77
2022/11/15 08:18:13;;;;;;;9.70;5.63;;;;;;;1.64;100.00;101301.84;4995753;28;20037;-77
2022/11/15 08:20:39;;;;;;;7.20;4.87;;;;;;;1.81;100.00;101341.06;4993456;28;20316;-77
2022/11/15 08:23:07;;;;;;;5.63;4.23;;;;;;;1.83;100.00;101342.66;4992717;28;20347;-77
2022/11/15 08:25:34;;;;;;;6.07;4.60;;;;;;;1.80;100.00;101336.75;5014682;28;20343;-77
2022/11/15 08:28:04;;;;;;;4.33;3.83;;;;;;;1.78;100.00;101343.88;5014328;28;20411;-79
2022/11/15 08:30:30;;;;;;;6.27;4.63;;;;;;;1.81;100.00;101343.69;4997068;28;20355;-77
2022/11/15 08:32:57;;;;;;;8.43;5.13;;;;;;;1.86;100.00;101345.09;5014179;28;20271;-78
2022/11/15 08:35:23;;;;;;;5.57;4.27;;;;;;;1.83;100.00;101353.16;5014380;28;20275;-76
2022/11/15 08:37:50;;;;;;;7.30;4.90;;;;;;;1.81;100.00;101348.94;5014922;28;20665;-76
2022/11/15 08:40:17;;;;;;;6.70;4.53;;;;;;;1.79;100.00;101348.19;5013949;28;20289;-76
2022/11/15 08:42:46;;;;;;;7.67;5.47;;;;;;;1.79;100.00;101345.56;5013914;28;20271;-77
2022/11/15 08:45:12;;;;;;;;;;;;;;;1.87;100.00;101359.09;5014457;28;20874;-76
2022/11/15 08:47:38;;;;;;;7.03;5.07;;;;;;;1.80;100.00;101347.25;5013863;28;19910;-78
2022/11/15 08:50:04;;;;;;;8.93;4.77;;;;;;;1.83;100.00;101347.06;5014253;28;20625;-76
2022/11/15 08:52:32;;;;;;;;;;;;;;;1.93;100.00;101353.44;4997146;28;20049;-77
2022/11/15 08:55:00;;;;;;;5.30;4.40;;;;;;;1.89;100.00;101357.22;5013543;28;20361;-77
2022/11/15 08:57:30;;;;;;;5.13;4.67;;;;;;;1.74;100.00;101337.13;5013545;28;20339;-81
2022/11/15 08:59:55;;;;;;;6.00;4.77;;;;;;;1.87;100.00;101359.09;4995723;28;20388;-77
2022/11/15 09:02:21;;;;;;;6.93;4.30;;;;;;;1.89;100.00;101345.84;5013531;28;20257;-77
2022/11/15 09:04:46;;;;;;;4.47;3.60;;;;;;;1.93;100.00;101361.34;5013836;28;20053;-76
2022/11/15 09:07:13;;;;;;;7.43;4.47;;;;;;;1.94;100.00;101364.81;5014000;28;20045;-78
2022/11/15 09:09:39;;;;;;;4.00;3.20;;;;;;;2.02;100.00;101358.13;5013731;28;20095;-77
2022/11/15 09:12:06;;;;;;;6.37;3.60;;;;;;;2.08;100.00;101365.66;5013527;28;20257;-78
2022/11/15 09:14:32;;;;;;;4.80;3.83;;;;;;;2.02;100.00;101357.28;5013973;28;20037;-76
2022/11/15 09:16:58;;;;;;;3.43;2.87;;;;;;;1.99;100.00;101350.44;5012621;28;20253;-78
2022/11/15 09:19:24;;;;;;;3.83;3.30;;;;;;;1.97;100.00;101344.44;5013215;28;20030;-77
2022/11/15 09:21:50;;;;;;;4.73;3.43;;;;;;;1.97;100.00;101333.94;5013311;28;20315;-77
2022/11/15 09:24:17;;;;;;;6.77;4.23;;;;;;;2.04;100.00;101352.81;5012174;28;20081;-79
2022/11/15 09:26:43;;;;;;;5.67;3.93;;;;;;;1.95;100.00;101346.31;5013931;28;20464;-80
2022/11/15 09:29:08;;;;;;;4.90;3.80;;;;;;;1.94;100.00;101344.63;5013477;28;20261;-78
2022/11/15 09:31:34;;;;;;;4.33;3.93;;;;;;;1.98;100.00;101340.88;5013803;28;20269;-78
2022/11/15 09:33:59;;;;;;;6.73;3.70;;;;;;;2.13;100.00;101353.09;5013646;28;20462;-78
2022/11/15 09:36:25;;;;;;;5.27;4.03;;;;;;;2.27;100.00;101361.91;4995452;28;20081;-77
2022/11/15 09:38:50;;;;;;;8.57;4.53;;;;;;;2.15;100.00;101363.50;5013304;28;20026;-77
2022/11/15 09:41:29;;;;;;;5.03;3.70;;;;;;;2.14;100.00;101362.66;5014523;28;20030;-79
2022/11/15 09:44:01;;;;;;;5.50;4.45;;;;;;;2.17;100.00;101366.88;5016043;28;20026;-78
2022/11/15 09:46:46;;;;;;;5.47;4.03;;;;;;;2.18;100.00;101371.19;5016236;28;20073;-77
2022/11/15 09:49:15;;;;;;;5.53;3.77;;;;;;;2.12;100.00;101375.06;5013442;28;20253;-79
2022/11/15 09:51:48;;;;;;;5.63;4.43;;;;;;;2.01;100.00;101366.97;5017641;28;20265;-76
2022/11/15 09:54:30;;;;;;;6.70;4.30;;;;;;;1.99;100.00;101374.09;5018343;28;20372;-79
2022/11/15 09:57:18;;;;;;;7.23;4.60;;;;;;;1.88;100.00;101359.94;4998313;28;20280;-78
2022/11/15 10:00:21;;;;;;;5.50;4.97;;;;;;;1.92;100.00;101371.94;5011995;28;20289;-77
2022/11/15 10:02:46;;;;;;;6.17;4.07;;;;;;;1.89;100.00;101377.38;4982193;28;20771;-80
2022/11/15 10:05:16;;;;;;;6.73;4.37;;;;;;;1.82;100.00;101371.66;5013533;28;20296;-78
2022/11/15 10:08:30;;;;;;;5.77;4.37;;;;;;;1.93;100.00;101379.72;5015087;28;20034;-79
2022/11/15 10:11:32;;;;;;;;;;;;;;;;;;;;;
2022/11/15 10:14:21;;;;;;;5.53;4.30;;;;;;;1.74;100.00;101352.88;5016106;28;20763;-81
2022/11/15 10:17:09;;;;;;;6.33;3.87;;;;;;;1.91;100.00;101392.09;5016621;28;20311;-77
2022/11/15 10:20:05;;;;;;;4.70;4.00;;;;;;;1.90;100.00;101398.28;5017355;28;20354;-79
2022/11/15 10:22:50;;;;;;;4.87;3.60;;;;;;;1.81;100.00;101385.72;5013107;28;20042;-76
2022/11/15 10:25:29;;;;;;;4.97;4.10;;;;;;;1.79;100.00;101398.09;4997003;28;20265;-80
2022/11/15 10:28:06;;;;;;;4.73;4.17;;;;;;;1.87;100.00;101398.47;4998221;28;20292;-78
2022/11/15 10:30:35;;;;;;;6.30;5.00;;;;;;;1.94;100.00;101402.44;4980326;28;20715;-78
2022/11/15 10:33:31;;;;;;;7.50;5.23;;;;;;;1.98;100.00;101403.94;4998299;28;20332;-77
2022/11/15 10:36:08;;;;;;;7.68;4.72;;;;;;;2.13;100.00;101413.53;4995975;28;20685;-77
2022/11/15 10:38:51;;;;;;;5.77;4.20;;;;;;;2.07;100.00;101408.66;4980368;28;20478;-76
2022/11/15 10:56:30;;;;;;;4.27;3.77;;;;;;;1.71;100.00;101416.91;4941982;28;20762;-78
2022/11/15 11:53:42;;;;;;;5.17;4.43;;;;;;;1.52;100.00;101443.41;5002308;28;20272;-76
2022/11/15 11:56:22;;;;;;;4.00;3.60;;;;;;;1.64;100.00;101454.97;5017113;28;20273;-78
2022/11/15 11:58:50;;;;;;;6.43;4.43;;;;;;;1.68;100.00;101458.25;5017768;28;20280;-78
2022/11/15 12:01:33;;;;;;;5.88;5.30;;;;;;;1.67;100.00;101467.06;5014970;28;20315;-76
2022/11/15 12:04:15;;;;;;;4.97;4.47;;;;;;;1.51;100.00;101461.88;5015562;28;20036;-78
2022/11/15 12:07:03;;;;;;;7.43;5.43;;;;;;;1.51;100.00;101467.97;5015369;28;20894;-77
2022/11/15 12:09:48;;;;;;;5.05;4.55;;;;;;;1.52;100.00;101469.66;5015100;28;20348;-79
2022/11/15 12:12:49;;;;;;;5.43;4.57;;;;;;;1.64;100.00;101467.25;5014998;28;20033;-76
2022/11/15 12:23:05;;;;;;;3.67;3.30;;;;;;;1.52;100.00;101480.16;5026159;28;20265;-78
2022/11/15 12:26:07;;;;;;;5.10;4.60;;;;;;;1.46;100.00;101471.78;5028991;28;20257;-78
2022/11/15 12:28:46;;;;;;;4.20;3.80;;;;;;;1.24;100.00;101427.53;5012193;28;20265;-77
2022/11/15 12:38:55;;;;;;;4.67;4.10;;;;;;;1.38;100.00;101448.56;4974705;28;20292;-81
2022/11/15 12:49:38;;;;;;;4.87;4.03;;;;;;;1.45;100.00;101477.97;5015825;28;20288;-76
2022/11/15 12:52:06;;;;;;;5.83;4.87;;;;;;;1.41;100.00;101477.28;5015549;28;20297;-80
2022/11/15 12:54:32;;;;;;;5.45;4.47;;;;;;;1.44;100.00;101482.34;5014879;28;20301;-80
2022/11/15 12:57:03;;;;;;;5.67;4.23;;;;;;;1.53;100.00;101492.34;5014587;28;20037;-76
2022/11/15 12:59:51;;;;;;;6.23;4.83;;;;;;;1.54;100.00;101495.81;5014683;28;20393;-80
2022/11/15 13:02:26;;;;;;;5.23;4.13;;;;;;;1.43;100.00;101495.56;5014400;28;20327;-79
2022/11/15 13:04:55;;;;;;;5.97;4.90;;;;;;;1.45;100.00;101499.81;5014571;28;20257;-79
2022/11/15 13:07:39;;;;;;;6.57;5.28;;;;;;;1.41;100.00;101493.03;4992475;28;20633;-74
2022/11/15 13:10:13;;;;;;;6.03;5.00;;;;;;;1.42;100.00;101492.09;5010357;28;20030;-73
2022/11/15 13:12:45;;;;;;;5.83;4.53;;;;;;;1.39;100.00;101492.25;5010093;28;20268;-72
2022/11/15 13:15:16;;;;;;;5.17;4.60;;;;;;;1.34;100.00;101501.31;5012890;28;20617;-76
2022/11/15 13:17:52;;;;;;;5.10;4.13;;;;;;;1.37;100.00;101507.25;5018088;28;20300;-76
2022/11/15 13:20:27;;;;;;;4.93;4.13;;;;;;;1.35;100.00;101498.63;4990309;28;20772;-75
2022/11/15 13:23:00;;;;;;;6.23;4.60;;;;;;;1.36;100.00;101513.44;5002796;28;20369;-76
2022/11/15 13:25:54;;;;;;;5.03;4.27;;;;;;;1.44;100.00;101513.84;5000625;28;20257;-76
2022/11/15 13:28:45;;;;;;;6.43;4.37;;;;;;;1.47;100.00;101513.69;4995392;28;20755;-76
2022/11/15 13:31:24;;;;;;;5.73;4.27;;;;;;;1.43;100.00;101521.81;5013184;28;20415;-75
2022/11/15 13:33:50;;;;;;;6.37;4.73;;;;;;;1.39;100.00;101515.88;4977217;28;20266;-75
2022/11/15 13:36:21;;;;;;;5.97;4.00;;;;;;;1.44;100.00;101521.72;5012677;28;20269;-76
2022/11/15 13:39:06;;;;;;;6.63;3.80;;;;;;;1.37;100.00;101530.88;5012721;28;20281;-75
2022/11/15 13:41:34;;;;;;;6.23;4.20;;;;;;;1.44;100.00;101526.97;5013170;28;20253;-77
2022/11/15 13:44:02;;;;;;;5.53;4.60;;;;;;;1.44;100.00;101529.59;5013331;28;20260;-76
2022/11/15 13:46:29;;;;;;;4.70;3.93;;;;;;;1.44;100.00;101540.09;5012531;28;20034;-77